Time;durP1;ratioP1;P1;durP2;ratioP2;P2;SDS_P1;SDS_P2;PMS_P1;PMS_P2;Temp;Humidity;BMP_temperature;BMP_pressure;BME280_temperature;BME280_humidity;BME280_pressure;Samples;Min_cycle;Max_cycle;Signal;HPM_P1;HPM_P2
2023/10/03 00:02:04;;;;;;;10.60;4.23;;;;;;;15.94;100.00;101052.06;5073171;28;20998;-73
2023/10/03 00:04:31;;;;;;;11.80;4.17;;;;;;;15.96;100.00;101058.81;5074726;28;20448;-73
2023/10/03 00:06:59;;;;;;;11.13;4.43;;;;;;;15.94;100.00;101044.69;5076401;28;20504;-73
2023/10/03 00:09:26;;;;;;;11.90;4.20;;;;;;;15.91;100.00;101041.81;5076566;28;20442;-73
2023/10/03 00:11:53;;;;;;;7.70;3.70;;;;;;;15.87;100.00;101039.72;5076334;28;20441;-73
2023/10/03 00:14:19;;;;;;;7.83;3.27;;;;;;;15.83;100.00;101029.78;5076313;28;20533;-73
2023/10/03 00:16:46;;;;;;;6.53;3.33;;;;;;;15.82;100.00;101026.25;5075873;28;20463;-73
2023/10/03 00:19:12;;;;;;;10.60;3.67;;;;;;;15.78;100.00;101028.03;5076230;28;20854;-73
2023/10/03 00:21:39;;;;;;;8.43;3.60;;;;;;;15.78;100.00;101027.22;5076464;28;20481;-73
2023/10/03 00:24:08;;;;;;;10.93;4.53;;;;;;;15.77;100.00;101018.22;5076513;28;20973;-73
2023/10/03 00:26:35;;;;;;;8.73;4.33;;;;;;;15.78;100.00;101014.38;5075833;28;21018;-73
2023/10/03 00:29:03;;;;;;;7.33;3.07;;;;;;;15.70;100.00;101006.19;5076331;28;20438;-73
2023/10/03 00:31:30;;;;;;;8.63;3.57;;;;;;;15.69;100.00;100999.94;5076439;28;20437;-73
2023/10/03 00:33:57;;;;;;;9.97;4.20;;;;;;;15.68;100.00;100992.88;5076278;28;20755;-73
2023/10/03 00:36:25;;;;;;;7.53;3.27;;;;;;;15.62;100.00;100985.94;5075862;28;20548;-73
2023/10/03 00:38:53;;;;;;;8.60;3.07;;;;;;;15.61;100.00;100987.84;5075842;28;20484;-73
2023/10/03 00:41:21;;;;;;;8.23;3.53;;;;;;;15.63;100.00;100984.81;5075400;28;20489;-73
2023/10/03 00:43:56;;;;;;;6.90;2.93;;;;;;;15.61;100.00;100981.59;5076028;28;20847;-73
2023/10/03 00:46:23;;;;;;;8.30;2.80;;;;;;;15.58;100.00;100987.69;5075653;28;20518;-73
2023/10/03 00:48:50;;;;;;;15.63;4.20;;;;;;;15.55;100.00;100989.16;5076034;28;20465;-73
2023/10/03 00:51:20;;;;;;;5.90;3.23;;;;;;;15.57;100.00;100975.97;5075616;28;20476;-73
2023/10/03 00:53:47;;;;;;;11.10;3.10;;;;;;;15.52;100.00;100978.88;5075756;28;20498;-73
2023/10/03 00:56:15;;;;;;;7.43;2.60;;;;;;;15.53;100.00;100983.22;5075798;28;20460;-73
2023/10/03 00:58:43;;;;;;;6.97;3.50;;;;;;;15.54;100.00;100973.13;5076021;28;20452;-73
2023/10/03 01:01:11;;;;;;;7.43;2.47;;;;;;;15.50;100.00;100972.16;5075715;28;20813;-72
2023/10/03 01:03:39;;;;;;;6.13;3.30;;;;;;;15.46;100.00;100961.09;5075405;28;20449;-72
2023/10/03 01:06:08;;;;;;;6.40;2.83;;;;;;;15.44;100.00;100963.31;5074796;28;20564;-73
2023/10/03 01:08:38;;;;;;;6.57;3.10;;;;;;;15.39;100.00;100958.84;5075463;28;20469;-73
2023/10/03 01:11:05;;;;;;;8.70;3.30;;;;;;;15.37;100.00;100957.56;5075223;28;20437;-73
2023/10/03 01:13:33;;;;;;;6.67;3.07;;;;;;;15.37;100.00;100957.56;5074852;28;20428;-73
2023/10/03 01:16:03;;;;;;;9.00;2.97;;;;;;;15.36;100.00;100956.78;5075174;28;20519;-73
2023/10/03 01:18:31;;;;;;;5.60;2.57;;;;;;;15.32;100.00;100955.81;5075165;28;20934;-73
2023/10/03 01:21:00;;;;;;;5.07;2.63;;;;;;;15.28;100.00;100952.13;5075320;28;20546;-73
2023/10/03 01:23:33;;;;;;;6.43;2.60;;;;;;;15.28;100.00;100943.94;5075345;28;20448;-73
2023/10/03 01:26:00;;;;;;;7.60;3.43;;;;;;;15.27;100.00;100949.69;5074691;28;20829;-73
2023/10/03 01:28:27;;;;;;;5.47;2.60;;;;;;;15.24;100.00;100948.44;5074974;28;20444;-73
2023/10/03 01:30:54;;;;;;;6.80;3.17;;;;;;;15.23;100.00;100941.38;5075191;28;20444;-73
2023/10/03 01:33:26;;;;;;;6.60;2.50;;;;;;;15.23;100.00;100933.19;5074928;28;20787;-73
2023/10/03 01:35:53;;;;;;;7.63;2.90;;;;;;;15.20;100.00;100927.56;5074720;28;20425;-73
2023/10/03 01:38:20;;;;;;;5.70;2.80;;;;;;;15.14;100.00;100927.75;5075371;28;20512;-73
2023/10/03 01:40:50;;;;;;;5.03;3.03;;;;;;;15.14;100.00;100924.22;5074896;28;20485;-73
2023/10/03 01:43:18;;;;;;;6.47;2.77;;;;;;;15.10;100.00;100915.88;5074322;28;20881;-73
2023/10/03 01:45:44;;;;;;;7.60;2.77;;;;;;;15.07;100.00;100913.78;5074403;28;20480;-74
2023/10/03 01:48:12;;;;;;;6.07;3.10;;;;;;;15.05;100.00;100913.31;5074487;28;20524;-74
2023/10/03 01:50:39;;;;;;;5.47;2.87;;;;;;;15.07;100.00;100899.34;5074472;28;20487;-74
2023/10/03 01:53:07;;;;;;;7.13;3.30;;;;;;;15.02;100.00;100899.50;5074411;28;20446;-74
2023/10/03 01:55:35;;;;;;;5.77;2.70;;;;;;;14.95;100.00;100896.47;5074060;28;20445;-73
2023/10/03 01:58:05;;;;;;;6.53;3.17;;;;;;;14.88;100.00;100886.06;5074690;28;20951;-73
2023/10/03 02:00:35;;;;;;;7.90;3.20;;;;;;;14.82;100.00;100885.41;5074513;28;20445;-73
2023/10/03 02:03:05;;;;;;;6.40;2.90;;;;;;;14.79;100.00;100888.00;5074292;28;20417;-73
2023/10/03 02:05:34;;;;;;;7.60;3.30;;;;;;;14.74;100.00;100882.66;5074371;28;20441;-73
2023/10/03 02:08:07;;;;;;;6.67;3.20;;;;;;;14.75;100.00;100876.13;5074159;28;20413;-73
2023/10/03 02:10:34;;;;;;;6.60;3.30;;;;;;;14.74;100.00;100872.59;5074192;28;20457;-73
2023/10/03 02:13:08;;;;;;;6.50;3.20;;;;;;;14.69;100.00;100859.09;5074049;28;20445;-73
2023/10/03 02:15:36;;;;;;;6.80;3.60;;;;;;;14.69;100.00;100856.38;5073644;28;20907;-73
2023/10/03 02:18:05;;;;;;;5.97;3.13;;;;;;;14.73;100.00;100862.00;5073946;28;20441;-73
2023/10/03 02:20:38;;;;;;;6.47;2.47;;;;;;;14.72;100.00;100847.56;5073865;28;20502;-73
2023/10/03 02:23:05;;;;;;;5.80;2.57;;;;;;;14.73;100.00;100842.91;5074254;28;20425;-73
2023/10/03 02:25:36;;;;;;;6.10;2.80;;;;;;;14.73;100.00;100837.44;5073610;28;20952;-74
2023/10/03 02:28:06;;;;;;;6.83;2.20;;;;;;;14.73;100.00;100826.53;5073824;28;20827;-71
2023/10/03 02:30:33;;;;;;;7.50;3.07;;;;;;;14.74;100.00;100819.94;5073522;28;20933;-71
2023/10/03 02:33:08;;;;;;;6.70;3.23;;;;;;;14.75;100.00;100814.19;5073891;28;20521;-74
2023/10/03 02:35:38;;;;;;;5.83;3.07;;;;;;;14.73;100.00;100816.44;5073824;28;20425;-73
2023/10/03 02:38:09;;;;;;;7.40;2.80;;;;;;;14.73;100.00;100802.78;5073767;28;20792;-73
2023/10/03 02:40:35;;;;;;;4.57;2.00;;;;;;;14.79;100.00;100798.78;5073866;28;20901;-73
2023/10/03 02:43:05;;;;;;;6.10;2.73;;;;;;;14.83;100.00;100794.28;5073359;28;20898;-72
2023/10/03 02:45:32;;;;;;;4.80;2.20;;;;;;;14.87;100.00;100784.34;5073422;28;20446;-72
2023/10/03 02:48:07;;;;;;;8.10;3.17;;;;;;;14.92;100.00;100782.53;5073155;28;20976;-72
2023/10/03 02:50:34;;;;;;;8.03;2.43;;;;;;;14.98;100.00;100775.78;5073824;28;20429;-72
2023/10/03 02:53:05;;;;;;;6.17;2.83;;;;;;;15.03;100.00;100770.16;5073915;28;20483;-72
2023/10/03 02:55:31;;;;;;;6.33;1.97;;;;;;;15.04;100.00;100767.09;5073563;28;20418;-73
2023/10/03 02:57:59;;;;;;;6.20;2.33;;;;;;;15.08;100.00;100761.78;5073003;28;20541;-73
2023/10/03 03:00:27;;;;;;;4.50;2.30;;;;;;;15.10;100.00;100751.38;5073400;28;20960;-72
2023/10/03 03:02:54;;;;;;;3.30;1.60;;;;;;;15.12;100.00;100746.38;5073262;28;20980;-72
2023/10/03 03:05:22;;;;;;;6.13;2.63;;;;;;;15.17;100.00;100748.91;5073383;28;20488;-72
2023/10/03 03:07:54;;;;;;;8.53;2.60;;;;;;;15.20;100.00;100747.47;5073859;28;20510;-72
2023/10/03 03:10:21;;;;;;;5.77;2.10;;;;;;;15.23;100.00;100746.78;5073782;28;20434;-72
2023/10/03 03:12:49;;;;;;;12.00;2.87;;;;;;;15.24;100.00;100727.38;5073332;28;20437;-73
2023/10/03 03:15:22;;;;;;;7.63;2.30;;;;;;;15.25;100.00;100726.25;5073015;28;20540;-73
2023/10/03 03:17:50;;;;;;;4.00;2.37;;;;;;;15.27;100.00;100724.00;5073233;28;20450;-73
2023/10/03 03:20:25;;;;;;;6.30;2.20;;;;;;;15.31;100.00;100722.19;5073930;28;20560;-73
2023/10/03 03:22:52;;;;;;;5.93;2.27;;;;;;;15.33;100.00;100717.22;5073172;28;20473;-73
2023/10/03 03:25:24;;;;;;;6.10;2.50;;;;;;;15.35;100.00;100712.22;5073179;28;20445;-73
2023/10/03 03:27:53;;;;;;;4.70;2.20;;;;;;;15.37;100.00;100706.44;5073159;28;20591;-73
2023/10/03 03:30:34;;;;;;;7.73;2.40;;;;;;;15.42;100.00;100700.78;5073220;28;20448;-73
2023/10/03 03:33:06;;;;;;;5.73;2.73;;;;;;;15.45;100.00;100707.50;5073531;28;20467;-73
2023/10/03 03:35:37;;;;;;;5.60;2.67;;;;;;;15.48;100.00;100698.66;5072842;28;20850;-73
2023/10/03 03:38:06;;;;;;;7.20;2.60;;;;;;;15.47;100.00;100691.59;5073184;28;20831;-73
2023/10/03 03:40:34;;;;;;;4.50;2.43;;;;;;;15.48;100.00;100685.00;5076430;28;20495;-73
2023/10/03 03:43:03;;;;;;;7.00;3.10;;;;;;;15.52;100.00;100672.28;5077049;28;20487;-74
2023/10/03 03:45:30;;;;;;;11.60;3.13;;;;;;;15.54;100.00;100689.97;5076802;28;20448;-73
2023/10/03 03:47:57;;;;;;;4.83;2.27;;;;;;;15.52;100.00;100678.56;5076651;28;20465;-73
2023/10/03 03:50:29;;;;;;;6.03;2.70;;;;;;;15.49;100.00;100667.50;5076240;28;20854;-73
2023/10/03 03:52:58;;;;;;;7.03;2.60;;;;;;;15.43;100.00;100685.22;5076697;28;20425;-73
2023/10/03 03:55:29;;;;;;;4.70;2.17;;;;;;;15.33;100.00;100676.28;5076747;28;20441;-73
2023/10/03 03:57:56;;;;;;;11.30;3.63;;;;;;;15.36;100.00;100663.88;5076255;28;20840;-73
2023/10/03 04:00:26;;;;;;;5.60;2.53;;;;;;;15.35;100.00;100670.47;5077028;28;20447;-73
2023/10/03 04:02:57;;;;;;;6.73;2.37;;;;;;;15.33;100.00;100659.09;5076464;28;20481;-73
2023/10/03 04:05:25;;;;;;;8.20;2.77;;;;;;;15.30;100.00;100657.03;5076506;28;20425;-73
2023/10/03 04:07:53;;;;;;;7.67;2.50;;;;;;;15.26;100.00;100654.16;5076430;28;20465;-73
2023/10/03 04:10:21;;;;;;;6.03;2.33;;;;;;;15.26;100.00;100654.16;5076425;28;20484;-73
2023/10/03 04:12:49;;;;;;;8.10;3.43;;;;;;;15.26;100.00;100656.88;5076425;28;20437;-73
2023/10/03 04:15:18;;;;;;;7.40;2.50;;;;;;;15.30;100.00;100646.91;5076394;28;20933;-73
2023/10/03 04:17:48;;;;;;;5.97;2.57;;;;;;;15.38;100.00;100648.00;5076210;28;20464;-73
2023/10/03 04:20:21;;;;;;;7.27;2.33;;;;;;;15.62;100.00;100650.03;5076563;28;20441;-74
2023/10/03 04:22:50;;;;;;;10.13;3.37;;;;;;;15.82;100.00;100646.56;5075803;28;20976;-73
2023/10/03 04:25:19;;;;;;;6.87;3.77;;;;;;;15.91;100.00;100645.69;5076092;28;20441;-74
2023/10/03 04:27:47;;;;;;;10.83;3.50;;;;;;;15.95;100.00;100638.41;5075961;28;20497;-74
2023/10/03 04:30:14;;;;;;;8.00;2.90;;;;;;;16.01;100.00;100645.25;5076042;28;20933;-74
2023/10/03 04:32:41;;;;;;;10.13;2.90;;;;;;;16.03;100.00;100629.34;5076318;28;20437;-74
2023/10/03 04:35:11;;;;;;;5.50;2.60;;;;;;;16.07;100.00;100638.44;5075966;28;20799;-74
2023/10/03 04:37:38;;;;;;;6.30;2.63;;;;;;;16.14;100.00;100630.50;5076212;28;21035;-74
2023/10/03 04:40:10;;;;;;;11.03;3.53;;;;;;;16.19;100.00;100632.22;5076221;28;20445;-74
2023/10/03 04:42:38;;;;;;;9.87;3.00;;;;;;;16.19;100.00;100626.75;5076117;28;20556;-74
2023/10/03 04:45:07;;;;;;;4.90;2.37;;;;;;;16.22;100.00;100617.88;5075498;28;20980;-73
2023/10/03 04:47:34;;;;;;;8.30;2.67;;;;;;;16.23;100.00;100617.53;5075716;28;20987;-73
2023/10/03 04:50:00;;;;;;;5.23;2.50;;;;;;;16.21;100.00;100611.63;5075046;28;20441;-73
2023/10/03 04:52:27;;;;;;;12.37;2.67;;;;;;;16.21;100.00;100599.91;5075677;28;20943;-73
2023/10/03 04:54:54;;;;;;;6.63;2.37;;;;;;;16.21;100.00;100592.50;5075328;28;20437;-73
2023/10/03 04:57:22;;;;;;;7.57;3.07;;;;;;;16.24;100.00;100591.78;5075821;28;20485;-73
2023/10/03 04:59:49;;;;;;;10.47;3.37;;;;;;;16.27;100.00;100587.59;5075695;28;20473;-73
2023/10/03 05:02:16;;;;;;;14.10;4.03;;;;;;;16.35;100.00;100584.75;5075376;28;20534;-73
2023/10/03 05:04:42;;;;;;;6.27;3.13;;;;;;;16.45;100.00;100582.72;5075243;28;20434;-73
2023/10/03 05:07:10;;;;;;;6.80;3.13;;;;;;;16.51;100.00;100571.22;5074915;28;21055;-74
2023/10/03 05:09:36;;;;;;;8.90;3.90;;;;;;;16.58;100.00;100570.66;5075430;28;20532;-74
2023/10/03 05:12:04;;;;;;;8.67;3.20;;;;;;;16.60;100.00;100573.81;5075294;28;20520;-73
2023/10/03 05:14:35;;;;;;;8.10;3.10;;;;;;;16.64;100.00;100572.81;5074928;28;20441;-74
2023/10/03 05:17:02;;;;;;;9.90;3.70;;;;;;;16.65;100.00;100551.75;5075417;28;20483;-74
2023/10/03 05:19:31;;;;;;;8.27;3.73;;;;;;;16.68;100.00;100553.78;5075182;28;20437;-74
2023/10/03 05:21:58;;;;;;;6.80;2.43;;;;;;;16.67;100.00;100540.44;5075351;28;20892;-74
2023/10/03 05:24:24;;;;;;;8.73;2.60;;;;;;;16.74;100.00;100540.72;5074707;28;20957;-74
2023/10/03 05:26:51;;;;;;;8.50;2.70;;;;;;;16.78;100.00;100536.94;5074599;28;20989;-74
2023/10/03 05:29:18;;;;;;;5.80;2.73;;;;;;;16.72;100.00;100532.00;5075298;28;20441;-74
2023/10/03 05:31:48;;;;;;;7.80;2.83;;;;;;;16.70;100.00;100521.41;5074977;28;20525;-74
2023/10/03 05:34:15;;;;;;;9.57;3.47;;;;;;;16.70;100.00;100520.63;5075136;28;20446;-75
2023/10/03 05:36:42;;;;;;;9.03;3.87;;;;;;;16.65;100.00;100511.50;5075355;28;20461;-73
2023/10/03 05:39:11;;;;;;;5.90;2.20;;;;;;;16.70;100.00;100509.69;5074987;28;20917;-76
2023/10/03 05:41:40;;;;;;;9.93;2.67;;;;;;;16.72;100.00;100515.59;5074709;28;20454;-74
2023/10/03 05:44:11;;;;;;;6.13;2.50;;;;;;;16.82;100.00;100506.94;5074701;28;20956;-74
2023/10/03 05:46:38;;;;;;;5.70;2.43;;;;;;;16.85;100.00;100504.31;5074521;28;20544;-74
2023/10/03 05:49:06;;;;;;;7.07;3.43;;;;;;;16.92;99.03;100502.94;5074509;28;20437;-74
2023/10/03 05:51:34;;;;;;;8.60;2.60;;;;;;;16.99;98.48;100508.63;5074869;28;20524;-74
2023/10/03 05:54:02;;;;;;;10.57;3.83;;;;;;;17.01;99.25;100500.88;5074762;28;20978;-74
2023/10/03 05:56:29;;;;;;;9.00;3.43;;;;;;;17.06;98.31;100504.16;5074976;28;20461;-74
2023/10/03 05:58:56;;;;;;;9.40;2.97;;;;;;;17.08;99.19;100510.06;5074661;28;20507;-72
2023/10/03 06:01:22;;;;;;;8.90;3.40;;;;;;;17.07;98.84;100502.22;5074126;28;20445;-74
2023/10/03 06:03:49;;;;;;;7.33;3.33;;;;;;;17.10;98.72;100496.84;5073742;28;20576;-74
2023/10/03 06:06:17;;;;;;;6.43;3.10;;;;;;;17.14;98.52;100488.75;5073741;28;20868;-74
2023/10/03 06:08:48;;;;;;;10.23;3.00;;;;;;;17.18;96.69;100500.59;5074229;28;20441;-75
2023/10/03 06:11:15;;;;;;;7.77;3.63;;;;;;;17.23;96.15;100496.81;5074266;28;20436;-76
2023/10/03 06:13:44;;;;;;;8.30;3.13;;;;;;;17.21;98.40;100497.13;5074068;28;20438;-68
2023/10/03 06:16:12;;;;;;;8.97;3.37;;;;;;;17.21;97.26;100490.88;5074379;28;20457;-74
2023/10/03 06:18:39;;;;;;;15.90;3.33;;;;;;;17.19;96.25;100491.22;5073794;28;20889;-74
2023/10/03 06:21:07;;;;;;;5.57;2.03;;;;;;;17.18;96.00;100484.16;5074623;28;20452;-75
2023/10/03 06:23:37;;;;;;;8.23;2.60;;;;;;;17.17;95.70;100488.03;5074503;28;20488;-75
2023/10/03 06:26:04;;;;;;;7.67;2.40;;;;;;;17.19;96.30;100488.50;5073850;28;20912;-75
2023/10/03 06:28:31;;;;;;;13.57;4.70;;;;;;;17.22;97.10;100501.50;5073744;28;20447;-75
2023/10/03 06:30:58;;;;;;;6.80;2.60;;;;;;;17.29;96.13;100495.41;5074391;28;20540;-75
2023/10/03 06:33:26;;;;;;;10.47;3.37;;;;;;;17.38;94.75;100494.09;5074440;28;20520;-74
2023/10/03 06:35:53;;;;;;;7.30;2.73;;;;;;;17.47;94.46;100484.94;5073671;28;20441;-74
2023/10/03 06:38:20;;;;;;;9.60;3.60;;;;;;;17.54;93.84;100496.09;5073379;28;20467;-75
2023/10/03 06:40:48;;;;;;;10.20;3.33;;;;;;;17.60;94.11;100495.50;5073743;28;20947;-75
2023/10/03 06:43:14;;;;;;;11.70;3.13;;;;;;;17.65;94.63;100491.69;5073649;28;20568;-75
2023/10/03 06:45:42;;;;;;;9.50;3.00;;;;;;;17.72;93.24;100494.63;5073910;28;20487;-75
2023/10/03 06:48:10;;;;;;;9.90;3.50;;;;;;;17.75;93.63;100483.00;5073942;28;20496;-75
2023/10/03 06:50:37;;;;;;;8.40;2.37;;;;;;;17.80;94.52;100481.94;5073905;28;20445;-75
2023/10/03 06:53:05;;;;;;;8.07;2.80;;;;;;;17.86;94.15;100477.78;5073591;28;20917;-75
2023/10/03 06:55:32;;;;;;;6.07;3.23;;;;;;;17.90;92.16;100471.25;5073450;28;20446;-75
2023/10/03 06:58:00;;;;;;;8.60;2.57;;;;;;;17.99;92.77;100456.59;5073444;28;20485;-75
2023/10/03 07:00:27;;;;;;;10.83;3.40;;;;;;;18.04;93.03;100448.88;5073509;28;20514;-74
2023/10/03 07:02:54;;;;;;;9.87;3.97;;;;;;;18.13;93.18;100444.00;5073341;28;21107;-75
2023/10/03 07:05:20;;;;;;;7.17;3.33;;;;;;;18.22;91.81;100460.28;5073316;28;20528;-75
2023/10/03 07:07:47;;;;;;;9.27;3.60;;;;;;;18.31;91.30;100468.31;5073100;28;20548;-75
2023/10/03 07:10:14;;;;;;;9.00;3.17;;;;;;;18.36;91.54;100460.59;5073447;28;20445;-75
2023/10/03 07:12:41;;;;;;;9.53;4.00;;;;;;;18.44;91.06;100472.53;5073647;28;20477;-75
2023/10/03 07:15:11;;;;;;;9.20;3.50;;;;;;;18.52;90.03;100466.06;5077782;28;20440;-75
2023/10/03 07:17:38;;;;;;;9.53;3.87;;;;;;;18.63;89.75;100467.06;5077590;28;20465;-75
2023/10/03 07:20:08;;;;;;;8.93;4.00;;;;;;;18.72;90.93;100468.84;5077380;28;20433;-75
2023/10/03 07:22:34;;;;;;;15.53;3.20;;;;;;;18.76;91.73;100445.03;5077238;28;20481;-75
2023/10/03 07:25:04;;;;;;;8.00;3.40;;;;;;;18.82;90.21;100429.91;5077325;28;20531;-75
2023/10/03 07:27:32;;;;;;;12.07;2.70;;;;;;;18.92;90.03;100442.25;5076858;28;20473;-75
2023/10/03 07:29:59;;;;;;;11.57;3.23;;;;;;;19.01;88.11;100449.09;5077689;28;20446;-76
2023/10/03 07:32:27;;;;;;;7.80;3.90;;;;;;;19.11;87.43;100436.75;5077539;28;20429;-76
2023/10/03 07:34:53;;;;;;;12.30;3.63;;;;;;;19.12;88.64;100452.88;5077099;28;20434;-76
2023/10/03 07:37:20;;;;;;;6.47;2.37;;;;;;;19.22;86.69;100448.75;5076712;28;20485;-76
2023/10/03 07:39:47;;;;;;;11.97;3.30;;;;;;;19.33;85.21;100468.94;5077660;28;20453;-77
2023/10/03 07:42:15;;;;;;;7.97;3.40;;;;;;;19.54;82.66;100471.31;5078007;28;20499;-74
2023/10/03 07:44:43;;;;;;;13.07;3.80;;;;;;;19.64;83.75;100468.00;5077099;28;20463;-71
2023/10/03 07:47:10;;;;;;;7.13;3.23;;;;;;;19.72;82.61;100457.13;5077206;28;20496;-72
2023/10/03 07:49:41;;;;;;;7.90;4.10;;;;;;;19.81;82.64;100461.22;5077051;28;20934;-78
2023/10/03 07:52:07;;;;;;;7.70;3.30;;;;;;;19.90;83.89;100438.97;5078627;28;20435;-77
2023/10/03 07:54:36;;;;;;;14.47;4.03;;;;;;;20.03;82.61;100439.59;5079161;28;20524;-75
2023/10/03 07:57:05;;;;;;;6.83;3.00;;;;;;;20.15;81.17;100442.94;5076990;28;20472;-75
2023/10/03 07:59:32;;;;;;;9.20;3.40;;;;;;;20.24;81.37;100437.16;5076287;28;20964;-76
2023/10/03 08:02:04;;;;;;;8.70;3.43;;;;;;;20.35;80.89;100445.56;5076594;28;20883;-75
2023/10/03 08:04:32;;;;;;;8.40;3.57;;;;;;;20.53;80.04;100432.09;5077156;28;20519;-77
2023/10/03 08:07:00;;;;;;;8.27;3.33;;;;;;;20.76;77.62;100427.31;5076274;28;20465;-76
2023/10/03 08:09:26;;;;;;;7.60;3.27;;;;;;;20.97;76.59;100423.22;5076499;28;20441;-75
2023/10/03 08:11:53;;;;;;;7.50;3.10;;;;;;;21.09;77.21;100434.00;5076630;28;20437;-76
2023/10/03 08:14:20;;;;;;;9.23;4.03;;;;;;;21.22;75.15;100434.53;5076742;28;20881;-75
2023/10/03 08:16:48;;;;;;;10.27;3.93;;;;;;;21.23;75.08;100431.38;5076405;28;20568;-75
2023/10/03 08:19:21;;;;;;;7.80;3.20;;;;;;;21.26;76.00;100422.38;5076607;28;20437;-76
2023/10/03 08:21:48;;;;;;;15.57;4.47;;;;;;;21.30;75.01;100414.94;5076330;28;20452;-75
2023/10/03 08:24:19;;;;;;;9.47;4.13;;;;;;;21.34;75.43;100404.78;5075828;28;20521;-75
2023/10/03 08:26:46;;;;;;;9.10;3.63;;;;;;;21.34;76.69;100402.03;5075970;28;20460;-75
2023/10/03 08:29:21;;;;;;;13.23;3.90;;;;;;;21.44;74.03;100402.50;5076465;28;20443;-75
2023/10/03 08:31:49;;;;;;;10.30;4.60;;;;;;;21.47;76.72;100401.72;5076030;28;20428;-75
2023/10/03 08:34:16;;;;;;;11.70;4.93;;;;;;;21.50;76.13;100401.78;5075968;28;20510;-72
2023/10/03 08:36:43;;;;;;;9.60;4.10;;;;;;;21.64;74.01;100420.41;5075819;28;20544;-74
2023/10/03 08:39:13;;;;;;;11.30;4.10;;;;;;;21.73;73.65;100409.84;5075914;28;20438;-76
2023/10/03 08:41:47;;;;;;;12.10;3.43;;;;;;;21.79;74.26;100399.28;5076021;28;20441;-73
2023/10/03 08:44:14;;;;;;;8.67;3.60;;;;;;;21.85;74.86;100400.50;5076506;28;20557;-73
2023/10/03 08:46:45;;;;;;;12.17;5.60;;;;;;;21.87;72.77;100396.19;5076185;28;20496;-73
2023/10/03 08:49:17;;;;;;;12.30;4.47;;;;;;;21.90;73.08;100389.91;5076333;28;20846;-73
2023/10/03 08:51:46;;;;;;;11.30;4.30;;;;;;;21.92;73.57;100398.59;5076976;28;20424;-74
2023/10/03 08:54:12;;;;;;;9.07;3.50;;;;;;;21.94;73.47;100383.63;5075963;28;20465;-74
2023/10/03 08:56:42;;;;;;;14.70;5.17;;;;;;;21.95;74.36;100385.97;5075862;28;20457;-75
2023/10/03 08:59:09;;;;;;;10.47;4.13;;;;;;;22.00;72.91;100387.59;5075776;28;20532;-74
2023/10/03 09:01:39;;;;;;;9.20;4.10;;;;;;;22.02;72.69;100391.56;5075684;28;20473;-75
2023/10/03 09:04:15;;;;;;;8.23;4.13;;;;;;;22.10;71.75;100415.28;5075448;28;20469;-75
2023/10/03 09:06:43;;;;;;;12.27;4.00;;;;;;;22.13;72.49;100410.97;5075236;28;20480;-76
2023/10/03 09:09:13;;;;;;;11.53;4.43;;;;;;;22.25;71.78;100398.84;5075489;28;20860;-73
2023/10/03 09:11:44;;;;;;;10.97;4.17;;;;;;;22.35;71.83;100401.66;5075898;28;20466;-75
2023/10/03 09:14:19;;;;;;;14.10;4.40;;;;;;;22.38;70.15;100403.63;5075000;28;20504;-73
2023/10/03 09:16:50;;;;;;;10.60;4.20;;;;;;;22.46;70.61;100398.97;5075257;28;20477;-72
2023/10/03 09:19:23;;;;;;;13.23;4.33;;;;;;;22.50;71.46;100415.56;5075224;28;20437;-74
2023/10/03 09:21:51;;;;;;;9.80;3.60;;;;;;;22.63;69.22;100397.47;5074966;28;20421;-78
2023/10/03 09:24:21;;;;;;;8.87;3.70;;;;;;;22.71;68.95;100393.56;5075157;28;20481;-75
2023/10/03 09:26:52;;;;;;;11.30;4.07;;;;;;;22.71;70.09;100401.03;5074855;28;20832;-73
2023/10/03 09:29:29;;;;;;;16.07;5.70;;;;;;;22.69;70.85;100404.19;5075711;28;20448;-72
2023/10/03 09:31:58;;;;;;;14.83;4.70;;;;;;;22.78;69.43;100410.16;5075106;28;20421;-72
2023/10/03 09:34:30;;;;;;;8.20;3.13;;;;;;;22.80;70.04;100396.75;5075422;28;20439;-77
2023/10/03 09:36:58;;;;;;;10.73;4.27;;;;;;;22.94;69.19;100401.56;5074426;28;20457;-81
2023/10/03 09:39:30;;;;;;;10.93;3.90;;;;;;;22.97;68.66;100399.97;5076788;28;20515;-80
2023/10/03 09:42:03;;;;;;;10.50;5.33;;;;;;;22.92;69.47;100392.88;5075161;28;20487;-76
2023/10/03 09:44:32;;;;;;;8.10;3.83;;;;;;;22.99;68.20;100392.13;5076325;28;20553;-79
2023/10/03 09:47:03;;;;;;;10.50;3.20;;;;;;;22.98;69.37;100390.53;5076687;28;20461;-79
2023/10/03 09:49:36;;;;;;;8.37;3.70;;;;;;;23.00;69.84;100382.63;5076763;28;20619;-81
2023/10/03 09:52:22;;;;;;;10.80;4.60;;;;;;;23.12;67.78;100387.81;5075307;28;20814;-75
2023/10/03 09:54:53;;;;;;;8.10;4.13;;;;;;;23.19;67.99;100379.50;5075209;28;20417;-75
2023/10/03 09:57:21;;;;;;;11.00;4.63;;;;;;;23.37;67.99;100385.88;5074575;28;20992;-75
2023/10/03 09:59:49;;;;;;;11.87;5.20;;;;;;;23.51;67.38;100382.34;5074393;28;20433;-70
2023/10/03 10:02:18;;;;;;;12.93;3.90;;;;;;;23.69;66.60;100406.47;5074301;28;20480;-69
2023/10/03 10:04:48;;;;;;;8.70;3.93;;;;;;;23.76;67.05;100398.94;5074198;28;20487;-69
2023/10/03 10:07:29;;;;;;;8.90;4.50;;;;;;;23.93;64.91;100394.59;5073674;28;21053;-73
2023/10/03 10:10:07;;;;;;;9.80;4.43;;;;;;;24.02;63.01;100381.16;5074060;28;20516;-73
2023/10/03 10:12:37;;;;;;;8.43;3.93;;;;;;;24.07;63.30;100389.03;5074139;28;20418;-76
2023/10/03 10:15:14;;;;;;;7.13;3.47;;;;;;;24.13;63.40;100393.00;5073814;28;20509;-76
2023/10/03 10:17:44;;;;;;;11.07;3.50;;;;;;;24.13;65.62;100389.44;5074301;28;20473;-76
2023/10/03 10:20:13;;;;;;;12.73;4.20;;;;;;;24.22;64.50;100372.44;5073769;28;20424;-77
2023/10/03 10:23:16;;;;;;;8.70;3.60;;;;;;;24.34;62.90;100381.06;5074533;28;20438;-77
2023/10/03 10:28:31;;;;;;;10.97;3.60;;;;;;;24.45;61.59;100388.59;5071934;28;20437;-76
2023/10/03 10:31:25;;;;;;;7.77;3.23;;;;;;;24.55;59.68;100385.00;5073894;28;20426;-74
2023/10/03 10:34:46;;;;;;;8.97;3.87;;;;;;;24.53;61.19;100388.19;5074278;28;20426;-76
2023/10/03 10:37:17;;;;;;;12.23;4.03;;;;;;;24.55;61.02;100393.31;5074218;28;20493;-77
2023/10/03 10:40:10;;;;;;;6.47;3.03;;;;;;;24.56;61.71;100387.38;5073668;28;20454;-78
2023/10/03 10:42:57;;;;;;;9.97;3.70;;;;;;;24.70;59.54;100386.50;5074082;28;20425;-77
2023/10/03 10:45:25;;;;;;;18.57;4.43;;;;;;;24.70;59.54;100396.81;5074159;28;20477;-77
2023/10/03 10:47:54;;;;;;;10.03;3.37;;;;;;;24.72;59.59;100394.44;5073842;28;20462;-76
2023/10/03 10:50:25;;;;;;;12.70;4.23;;;;;;;24.66;61.24;100383.00;5073798;28;20450;-76
2023/10/03 10:52:53;;;;;;;6.87;2.90;;;;;;;24.60;61.26;100379.84;5074123;28;20426;-78
2023/10/03 10:55:20;;;;;;;7.90;2.80;;;;;;;24.59;60.50;100369.16;5074191;28;20441;-77
2023/10/03 10:57:47;;;;;;;11.83;3.70;;;;;;;24.50;62.30;100371.56;5073763;28;20469;-77
2023/10/03 11:00:22;;;;;;;7.57;3.90;;;;;;;24.51;61.23;100367.59;5074147;28;20445;-77
2023/10/03 11:02:50;;;;;;;9.47;3.50;;;;;;;24.47;61.05;100375.13;5074538;28;20445;-76
2023/10/03 11:05:17;;;;;;;7.57;3.33;;;;;;;24.45;60.69;100392.16;5073803;28;20536;-76
2023/10/03 11:07:49;;;;;;;14.23;4.50;;;;;;;24.49;60.57;100397.69;5073387;28;20552;-77
2023/10/03 11:10:17;;;;;;;8.50;3.40;;;;;;;24.51;60.66;100387.00;5074271;28;20453;-77
2023/10/03 11:12:44;;;;;;;12.00;3.40;;;;;;;24.55;59.28;100391.31;5074808;28;20451;-77
2023/10/03 11:15:12;;;;;;;8.47;3.27;;;;;;;24.53;59.12;100396.50;5074435;28;20437;-77
2023/10/03 11:17:39;;;;;;;7.37;3.40;;;;;;;24.42;61.61;100387.41;5074319;28;20865;-77
2023/10/03 11:20:12;;;;;;;9.33;3.60;;;;;;;24.38;61.65;100392.97;5077096;28;20449;-77
2023/10/03 11:22:38;;;;;;;7.23;2.73;;;;;;;24.40;60.56;100407.22;5081278;28;20421;-77
2023/10/03 11:25:10;;;;;;;9.10;3.50;;;;;;;24.43;59.54;100405.59;5077911;28;20539;-77
2023/10/03 11:27:37;;;;;;;8.07;2.97;;;;;;;24.33;59.69;100414.69;5079553;28;20961;-77
2023/10/03 11:30:14;;;;;;;11.70;3.03;;;;;;;24.30;60.95;100410.75;5078128;28;20438;-77
2023/10/03 11:32:41;;;;;;;9.83;3.30;;;;;;;24.35;59.89;100418.66;5074967;28;20516;-77